createdAt,value
2023-09-05T00:01:58.762Z,62.686578682650804
2023-09-05T00:04:55.246Z,62.72713864841869
2023-09-05T00:07:51.886Z,63.07976408700581
2023-09-05T00:10:48.370Z,62.936489259170024
2023-09-05T00:13:44.954Z,62.90306697696845
2023-09-05T00:16:40.556Z,63.45277721712414
2023-09-05T00:19:36.097Z,62.98231625248263
2023-09-05T00:22:31.661Z,63.499887367284344
2023-09-05T00:25:27.168Z,64.14308846236273
2023-09-05T00:28:24.761Z,63.82980767398756
2023-09-05T00:31:20.393Z,63.22830414164476
2023-09-05T00:34:16.920Z,63.12617957911334
2023-09-05T00:37:16.410Z,63.31365945184993
2023-09-05T00:40:13.009Z,63.64382595427002
2023-09-05T00:43:08.551Z,65.08476303832701
2023-09-05T00:46:07.201Z,64.85246761352242
2023-09-05T00:49:03.652Z,63.918616362044254
2023-09-05T00:52:01.224Z,65.02710035904744
2023-09-05T00:54:57.783Z,64.83099914539464
2023-09-05T00:57:56.317Z,65.17918477852095
2023-09-05T01:00:52.922Z,65.08875822171942
2023-09-05T01:03:48.420Z,64.73053325740109
2023-09-05T01:06:53.974Z,63.38270629735125
2023-09-05T01:09:58.593Z,64.3118564126312
2023-09-05T01:12:58.035Z,65.20446968775103
2023-09-05T01:15:54.675Z,66.04429842556095
2023-09-05T01:18:50.205Z,65.87479334055718
2023-09-05T01:21:56.716Z,67.173663141584
2023-09-05T01:24:54.329Z,66.85579644916103
2023-09-05T01:27:52.838Z,68.03835167457149
2023-09-05T01:30:48.383Z,67.08865477131009
2023-09-05T01:33:45.966Z,66.91762507328944
2023-09-05T01:36:41.504Z,66.43661420970678
2023-09-05T01:39:38.147Z,67.16419417786518
2023-09-05T01:42:33.638Z,66.47273570776484
2023-09-05T01:45:31.259Z,65.39699648083297
2023-09-05T01:48:26.760Z,66.7846919136624
2023-09-05T01:51:22.299Z,66.84118460887882
2023-09-05T01:54:18.883Z,67.6314802216873
2023-09-05T01:57:14.427Z,66.7333157887851
2023-09-05T02:00:12.020Z,65.98241973276238
2023-09-05T02:03:07.577Z,66.53525236191743
2023-09-05T02:06:03.152Z,66.74146302611037
2023-09-05T02:08:59.689Z,66.10748376132028
2023-09-05T02:11:55.245Z,66.69856439707671
2023-09-05T02:14:50.862Z,68.29893530034198
2023-09-05T02:17:48.434Z,68.10275464981147
2023-09-05T02:20:45.893Z,68.44319789145271
2023-09-05T02:23:41.457Z,68.4281747566987
2023-09-05T02:26:38.050Z,68.95691872270626
2023-09-05T02:29:33.674Z,68.80828194639508
2023-09-05T02:32:30.169Z,69.11699680046753
2023-09-05T02:35:26.733Z,69.1744734426713
2023-09-05T02:38:23.284Z,69.20232598456109
2023-09-05T02:41:19.820Z,69.57314876906636
2023-09-05T02:44:16.398Z,69.63440086434322
2023-09-05T02:47:12.949Z,69.06217619345207
2023-09-05T02:50:09.525Z,69.53054181405993
2023-09-05T02:53:06.083Z,70.76243503723002
2023-09-05T02:56:02.644Z,70.12814591978123
2023-09-05T02:59:00.182Z,70.1640822005327
2023-09-05T03:01:55.784Z,69.97293172017423
2023-09-05T03:04:52.377Z,70.19549228641394
2023-09-05T03:07:49.874Z,69.96890348974192
2023-09-05T03:10:49.432Z,69.53050918299493
2023-09-05T03:13:46.009Z,71.06717949019888
2023-09-05T03:16:41.540Z,69.85217987758
2023-09-05T03:19:38.108Z,70.01636755505147
2023-09-05T03:22:33.616Z,70.26891265663005
2023-09-05T03:25:29.199Z,69.7206958936704
2023-09-05T03:28:24.769Z,70.19624688740687
2023-09-05T03:31:20.495Z,70.89356406290727
2023-09-05T03:34:15.929Z,70.1394751261288
2023-09-05T03:37:11.444Z,70.14000013434978
2023-09-05T03:40:08.059Z,70.18007884396417
2023-09-05T03:43:04.628Z,69.14713405456578
2023-09-05T03:46:00.207Z,69.84589766368946
2023-09-05T03:48:57.830Z,70.85488132406981
2023-09-05T03:51:53.302Z,69.83699261492164
2023-09-05T03:54:49.818Z,70.4414616586274
2023-09-05T03:57:45.382Z,71.69416704803885
2023-09-05T04:00:42.024Z,70.43105658044692
2023-09-05T04:03:37.634Z,70.00314395531898
2023-09-05T04:06:33.084Z,71.46037364886534
2023-09-05T04:09:28.639Z,70.01462294115784
2023-09-05T04:12:24.238Z,70.42918483223929
2023-09-05T04:15:22.780Z,71.42853567765373
2023-09-05T04:18:20.316Z,72.17329147536076
2023-09-05T04:21:15.878Z,71.56220485519955
2023-09-05T04:24:11.444Z,70.67425728848161
2023-09-05T04:27:07.005Z,71.11691624884988
2023-09-05T04:30:04.590Z,69.96947522656934
2023-09-05T04:33:04.147Z,69.8917464580414
2023-09-05T04:35:59.687Z,70.17503929896968
2023-09-05T04:38:55.217Z,70.1960096058926
2023-09-05T04:41:52.777Z,72.72817060309009
2023-09-05T04:44:51.345Z,71.66257878967377
2023-09-05T04:47:50.920Z,72.18926415340081
2023-09-05T04:50:46.462Z,71.4930022428586
2023-09-05T04:53:42.999Z,72.16299101602151
2023-09-05T04:56:38.562Z,71.15307119302638
2023-09-05T04:59:34.120Z,72.67610528036114
2023-09-05T05:02:32.670Z,71.54062404044967
2023-09-05T05:05:28.240Z,71.57728884509191
2023-09-05T05:08:24.174Z,70.74812572620912
2023-09-05T05:11:19.536Z,70.57540163832701
2023-09-05T05:14:14.940Z,71.05254894715156
2023-09-05T05:17:13.487Z,70.81131606470258
2023-09-05T05:20:10.056Z,70.65225268098
2023-09-05T05:23:07.661Z,70.45423927872186
2023-09-05T05:26:03.170Z,70.00269180971944
2023-09-05T05:28:58.681Z,70.8322437663762
2023-09-05T05:31:55.264Z,69.5166039336213
2023-09-05T05:34:50.842Z,69.6302727163355
2023-09-05T05:37:46.416Z,69.19761527859629
2023-09-05T05:40:42.972Z,69.0478357855502
2023-09-05T05:43:39.537Z,68.28415294328487
2023-09-05T05:46:35.110Z,67.86512755615863
2023-09-05T05:49:31.649Z,68.30698467126136
2023-09-05T05:52:29.186Z,67.78134146940579
2023-09-05T05:55:24.789Z,66.8989899096931
2023-09-05T05:58:20.343Z,66.4927823702578
2023-09-05T06:01:18.915Z,65.30239776056303
2023-09-05T06:04:16.506Z,66.29749139325725
2023-09-05T06:07:13.003Z,66.63304927588392
2023-09-05T06:10:09.549Z,66.65203407360455
2023-09-05T06:13:06.119Z,65.11925033744708
2023-09-05T06:16:01.671Z,65.68806462816195
2023-09-05T06:18:57.249Z,66.25958804988896
2023-09-05T06:21:52.807Z,65.04768309087893
2023-09-05T06:24:50.367Z,64.99193695075843
2023-09-05T06:27:45.959Z,65.07081386673458
2023-09-05T06:30:43.505Z,64.39819591800752
2023-09-05T06:33:39.067Z,64.48833720815155
2023-09-05T06:36:39.882Z,64.58392577544527
2023-09-05T06:39:37.144Z,64.60707472549659
2023-09-05T06:42:32.721Z,64.3005693054871
2023-09-05T06:45:28.306Z,63.39218832036769
2023-09-05T06:48:24.942Z,62.68282708245089
2023-09-05T06:51:20.434Z,62.25236410525937
2023-09-05T06:54:15.976Z,62.45133704715744
2023-09-05T06:57:11.545Z,61.42937925548668
2023-09-05T07:00:09.072Z,61.44130196373764
2023-09-05T07:03:06.647Z,61.010694715086686
2023-09-05T07:06:07.302Z,61.27942572570221
2023-09-05T07:09:04.761Z,60.87890038674784
2023-09-05T07:12:01.314Z,60.94435805070631
2023-09-05T07:14:56.850Z,60.986088852456845
2023-09-05T07:17:53.461Z,60.51434394249801
2023-09-05T07:20:49.997Z,60.23363962688146
2023-09-05T07:23:45.550Z,59.27467080583422
2023-09-05T07:26:42.106Z,59.06762457273717
2023-09-05T07:29:37.675Z,58.23095763981161
2023-09-05T07:32:34.221Z,58.198280381098265
2023-09-05T07:35:29.772Z,58.84439570981705
2023-09-05T07:38:25.664Z,58.52939224491456
2023-09-05T07:41:21.893Z,57.579165168078674
2023-09-05T07:44:20.629Z,57.6761370263139
2023-09-05T07:47:16.991Z,57.98704546661156
2023-09-05T07:50:13.563Z,57.27097033635053
2023-09-05T07:53:09.189Z,57.17299538650061
2023-09-05T07:56:05.772Z,55.96613429919772
2023-09-05T07:59:01.264Z,55.392261034845255
2023-09-05T08:01:58.820Z,54.68898254983184
2023-09-05T08:04:57.378Z,54.812151933088956
2023-09-05T08:07:52.938Z,54.58116918788382
2023-09-05T08:10:50.509Z,54.79008432491461
2023-09-05T08:13:47.155Z,54.41691035907354
2023-09-05T08:16:43.604Z,54.11420464112569
2023-09-05T08:19:41.174Z,54.23518035768901
2023-09-05T08:22:39.873Z,53.6103858675679
2023-09-05T08:25:36.293Z,53.47004009211556
2023-09-05T08:28:33.835Z,52.36808697775147
2023-09-05T08:31:33.441Z,52.75273004087848
2023-09-05T08:34:30.068Z,52.51449682909615
2023-09-05T08:37:26.491Z,51.380583193575625
2023-09-05T08:40:24.066Z,51.45119840508231
2023-09-05T08:43:21.668Z,50.94297914827273
2023-09-05T08:46:19.278Z,50.666129719472444
2023-09-05T08:49:14.731Z,50.3755057181803
2023-09-05T08:52:16.758Z,49.68945114744455
2023-09-05T08:55:15.823Z,50.745248852407194
2023-09-05T08:58:12.412Z,49.48837531102958
2023-09-05T09:01:08.034Z,50.27726144210135
2023-09-05T09:04:04.535Z,49.90595741052654
2023-09-05T09:07:01.073Z,49.14359971052017
2023-09-05T09:10:17.595Z,48.776455857376206
2023-09-05T09:13:15.125Z,48.346698490856156
2023-09-05T09:16:17.719Z,47.00011434404269
2023-09-05T09:19:16.957Z,47.02890078942184
2023-09-05T09:22:12.870Z,47.330058935123404
2023-09-05T09:25:13.381Z,46.99393752817675
2023-09-05T09:28:08.901Z,45.93575986117827
2023-09-05T09:31:06.509Z,46.247460452230285
2023-09-05T09:34:07.030Z,45.166945994731165
2023-09-05T09:37:04.581Z,45.7031796097188
2023-09-05T09:40:05.124Z,44.90499544646103
2023-09-05T09:43:01.651Z,44.98644275741916
2023-09-05T09:46:00.323Z,44.854391329146736
2023-09-05T09:49:00.777Z,44.39742816736253
2023-09-05T09:52:04.332Z,44.27291040282527
2023-09-05T09:55:03.892Z,45.250088147591484
2023-09-05T09:58:05.406Z,43.27462531292032
2023-09-05T10:01:05.000Z,43.268439413121136
2023-09-05T10:04:02.553Z,42.849406406501586
2023-09-05T10:07:00.182Z,42.67302798661284
2023-09-05T10:09:57.658Z,42.362824999941516
2023-09-05T10:12:57.233Z,43.06286845138245
2023-09-05T10:15:54.801Z,42.46794441215136
2023-09-05T10:18:51.414Z,41.033248812200554
2023-09-05T10:21:50.879Z,40.170915572145034
2023-09-05T10:24:49.506Z,40.98759364262305
2023-09-05T10:27:44.984Z,40.268253332710565
2023-09-05T10:30:47.534Z,40.38876341296056
2023-09-05T10:33:45.092Z,38.820675879129965
2023-09-05T10:36:46.676Z,38.56725405703623
2023-09-05T10:39:55.172Z,37.749677504712906
2023-09-05T10:42:55.734Z,37.64260483715553
2023-09-05T10:45:57.339Z,37.62997119923558
2023-09-05T10:49:02.764Z,37.120360669763414
2023-09-05T10:52:08.354Z,36.518828667764915
2023-09-05T10:55:09.889Z,36.60131372438437
2023-09-05T10:58:20.423Z,37.79901936135539
2023-09-05T11:01:29.940Z,36.12544908116418
2023-09-05T11:04:28.549Z,35.44053517223956
2023-09-05T11:07:32.048Z,34.905831289708516
2023-09-05T11:10:29.615Z,35.020532812198354
2023-09-05T11:13:27.413Z,35.72402952669734
2023-09-05T11:16:28.839Z,33.452030302559756
2023-09-05T11:19:38.267Z,34.37195905130538
2023-09-05T11:22:42.196Z,33.29424250661525
2023-09-05T11:25:42.423Z,32.53937900609909
2023-09-05T11:28:38.920Z,32.25073283681705
2023-09-05T11:31:35.546Z,32.00605623190654
2023-09-05T11:34:30.985Z,32.95495942744531
2023-09-05T11:37:29.556Z,31.418950420231027
2023-09-05T11:40:27.141Z,28.89714443115134
2023-09-05T11:43:29.816Z,30.560595203713863
2023-09-05T11:46:27.184Z,28.261845354933165
2023-09-05T11:49:23.781Z,28.5986664039162
2023-09-05T11:52:20.372Z,33.49009260181858
2023-09-05T11:55:17.906Z,31.815261072107216
2023-09-05T11:58:16.450Z,30.19939199656696
2023-09-05T12:01:21.039Z,28.67842572746696
2023-09-05T12:04:17.689Z,30.10646313164774
2023-09-05T12:07:13.090Z,31.43279578393074
2023-09-05T12:10:10.792Z,29.207901363807903
2023-09-05T12:13:07.217Z,27.561794753195738
2023-09-05T12:16:06.754Z,27.127680605205736
2023-09-05T12:19:03.339Z,26.48049726448203
2023-09-05T12:22:03.898Z,24.990239748202146
2023-09-05T12:25:09.416Z,25.36250546799035
2023-09-05T12:28:16.942Z,25.613458507017988
2023-09-05T12:31:18.662Z,27.327013064819567
2023-09-05T12:34:15.056Z,29.116016925296055
2023-09-05T12:37:10.675Z,32.26118364609686
2023-09-05T12:40:08.256Z,30.375732391388883
2023-09-05T12:43:04.719Z,27.62179337291461
2023-09-05T12:46:01.503Z,29.230816724984898
2023-09-05T12:48:59.125Z,25.11247152201875
2023-09-05T12:51:58.379Z,24.783621885362667
2023-09-05T12:54:54.967Z,25.270237670941675
2023-09-05T12:57:50.510Z,23.02459385988386
2023-09-05T13:00:48.066Z,25.609264217956817
2023-09-05T13:03:43.643Z,24.94508838875972
2023-09-05T13:06:43.213Z,25.037602164091094
2023-09-05T13:09:38.731Z,27.85829543911215
2023-09-05T13:12:35.322Z,30.485041455849238
2023-09-05T13:15:31.903Z,29.482560052164953
2023-09-05T13:18:28.580Z,31.122111910253018
2023-09-05T13:21:26.019Z,31.199214746487428
2023-09-05T13:24:21.564Z,31.256052807814047
2023-09-05T13:27:19.121Z,30.390229524183766
2023-09-05T13:30:15.625Z,26.022416309263015
2023-09-05T13:33:12.440Z,25.760589295420417
2023-09-05T13:36:08.879Z,23.331065062604182
2023-09-05T13:39:04.437Z,25.328268345561856
2023-09-05T13:42:01.957Z,22.432592106450755
2023-09-05T13:44:57.465Z,21.29687550707201
2023-09-05T13:47:53.090Z,21.51225504008104
2023-09-05T13:50:54.628Z,20.717910345835858
2023-09-05T13:53:53.172Z,20.391388215181887
2023-09-05T13:56:49.752Z,19.652029018806008
2023-09-05T13:59:46.416Z,18.86220863389884
2023-09-05T14:02:42.827Z,21.3022123047072
2023-09-05T14:05:40.400Z,23.450302156083833
2023-09-05T14:08:35.962Z,19.446752562987452
2023-09-05T14:11:31.516Z,20.553538709161792
2023-09-05T14:14:28.037Z,20.06017711185574
2023-09-05T14:17:26.653Z,19.799920309983296
2023-09-05T14:20:25.205Z,19.44882827921234
2023-09-05T14:23:20.730Z,20.833538202422854
2023-09-05T14:26:16.253Z,21.756854425377885
2023-09-05T14:29:14.840Z,21.95653631531264
2023-09-05T14:32:10.489Z,21.986629416808206
2023-09-05T14:35:06.961Z,21.248811014711276
2023-09-05T14:38:02.501Z,19.437542625956592
2023-09-05T14:40:59.076Z,17.903970745313714
2023-09-05T14:43:56.733Z,20.716666510752923
2023-09-05T14:46:52.205Z,20.491476617618805
2023-09-05T14:49:47.751Z,21.227022339992075
2023-09-05T14:52:43.332Z,20.959001129027666
2023-09-05T14:55:39.886Z,19.378059044338904
2023-09-05T14:58:35.426Z,18.5572243276255
2023-09-05T15:01:31.142Z,17.994231003674916
2023-09-05T15:04:26.672Z,18.40298508819341
2023-09-05T15:07:22.153Z,18.526401863164583
2023-09-05T15:10:18.741Z,17.456519431488235
2023-09-05T15:13:14.221Z,16.519609591892415
2023-09-05T15:16:10.989Z,15.701647473778651
2023-09-05T15:19:08.468Z,15.62094923168633
2023-09-05T15:22:04.902Z,15.606648031459912
2023-09-05T15:25:05.462Z,15.480338835760156
2023-09-05T15:28:07.018Z,15.375292915564742
2023-09-05T15:31:05.582Z,15.151241137209503
2023-09-05T15:34:02.334Z,14.610476213897641
2023-09-05T15:36:57.712Z,14.89010040180247
2023-09-05T15:39:53.212Z,16.735172185030496
2023-09-05T15:42:48.840Z,17.91166921604581
2023-09-05T15:45:47.548Z,18.40569071239488
2023-09-05T15:48:44.003Z,17.495555047198977
2023-09-05T15:51:44.624Z,16.36503167592709
2023-09-05T15:54:43.319Z,15.216609725480817
2023-09-05T15:57:40.805Z,16.15289969505522
2023-09-05T16:00:37.228Z,16.878283249699937
2023-09-05T16:03:33.843Z,16.2210061758853
2023-09-05T16:06:31.294Z,16.05827138744397
2023-09-05T16:09:26.848Z,15.628243210287707
2023-09-05T16:12:24.407Z,15.730526662366952
2023-09-05T16:15:20.009Z,15.660456999542504
2023-09-05T16:18:16.669Z,15.675722495539109
2023-09-05T16:21:13.194Z,15.220376961698085
2023-09-05T16:24:08.708Z,15.375562521738155
2023-09-05T16:27:06.219Z,15.729503968932683
2023-09-05T16:30:01.808Z,16.24499527401296
2023-09-05T16:32:57.360Z,16.76110766610761
2023-09-05T16:35:59.918Z,17.060950723043558
2023-09-05T16:38:56.423Z,17.730968204765333
2023-09-05T16:41:51.980Z,18.958289940847802
2023-09-05T16:44:47.551Z,21.167564703509765
2023-09-05T16:47:43.144Z,22.81560694622059
2023-09-05T16:50:41.457Z,24.479543437990152
2023-09-05T16:53:37.183Z,24.837712497975506
2023-09-05T16:56:33.795Z,25.806800497890837
2023-09-05T16:59:32.344Z,26.51377970605562
2023-09-05T17:02:27.957Z,27.410266974660992
2023-09-05T17:05:23.453Z,28.174856312752826
2023-09-05T17:08:19.044Z,30.725513568388173
2023-09-05T17:11:20.556Z,33.600444630618064
2023-09-05T17:14:17.158Z,34.06237772716538
2023-09-05T17:17:13.685Z,34.11942743356937
2023-09-05T17:20:10.241Z,35.71279445902366
2023-09-05T17:23:07.806Z,35.785540843379344
2023-09-05T17:26:04.359Z,36.683662067660244
2023-09-05T17:28:59.913Z,36.776951614182
2023-09-05T17:31:56.489Z,38.79015253190283
2023-09-05T17:34:53.055Z,38.54255779264368
2023-09-05T17:37:51.583Z,38.38907347312842
2023-09-05T17:40:49.149Z,37.294879714583104
2023-09-05T17:43:44.759Z,38.29035652163936
2023-09-05T17:46:40.346Z,40.079172218058005
2023-09-05T17:49:35.838Z,39.10247147154935
2023-09-05T17:52:34.501Z,40.44713720059354
2023-09-05T17:55:29.942Z,40.716975271535475
2023-09-05T17:58:26.899Z,41.359388207329395
2023-09-05T18:01:23.112Z,42.62007164441679
2023-09-05T18:04:19.788Z,41.40472689945234
2023-09-05T18:07:19.152Z,41.8685030864283
2023-09-05T18:10:16.800Z,42.7956523525673
2023-09-05T18:13:14.415Z,43.349976256414564
2023-09-05T18:16:12.904Z,43.36636305728655
2023-09-05T18:19:08.558Z,44.377641935163204
2023-09-05T18:22:08.009Z,43.65602917816007
2023-09-05T18:25:09.612Z,45.26676706751853
2023-09-05T18:28:05.864Z,45.464577526690064
2023-09-05T18:31:04.682Z,46.626324457584914
2023-09-05T18:34:00.291Z,45.81157801238912
2023-09-05T18:36:55.770Z,46.254387813940475
2023-09-05T18:39:51.331Z,46.675986381477806
2023-09-05T18:42:46.930Z,47.6221868374435
2023-09-05T18:45:43.612Z,47.671679646990626
2023-09-05T18:48:40.024Z,47.14418604984693
2023-09-05T18:51:40.605Z,47.41600302557166
2023-09-05T18:54:40.420Z,47.72562073809666
2023-09-05T18:57:36.736Z,48.30530151805737
2023-09-05T19:00:32.316Z,48.807539975453125
2023-09-05T19:03:27.917Z,48.664932165016005
2023-09-05T19:06:24.378Z,48.33912718257673
2023-09-05T19:09:24.960Z,49.076671964534306
2023-09-05T19:12:20.460Z,48.8128520857594
2023-09-05T19:15:16.060Z,50.07358687751988
2023-09-05T19:18:12.825Z,49.980862146534086
2023-09-05T19:21:10.150Z,50.57007540753643
2023-09-05T19:24:14.480Z,50.36549962684351
2023-09-05T19:27:11.250Z,51.2382620924894
2023-09-05T19:30:07.810Z,50.586999396026584
2023-09-05T19:33:04.477Z,50.99463032162499
2023-09-05T19:36:01.904Z,51.22587876796344
2023-09-05T19:38:57.469Z,51.4533392254691
2023-09-05T19:41:53.051Z,51.36381197119348
2023-09-05T19:44:49.652Z,51.41764351547945
2023-09-05T19:47:45.171Z,51.78979965052386
2023-09-05T19:50:42.788Z,51.866441613369496
2023-09-05T19:53:40.252Z,52.3791272752442
2023-09-05T19:56:36.916Z,51.82804598295055
2023-09-05T19:59:32.429Z,52.979347810578
2023-09-05T20:02:29.032Z,53.840540699208546
2023-09-05T20:05:24.562Z,53.36961657609792
2023-09-05T20:08:25.246Z,54.30636319141189
2023-09-05T20:11:23.663Z,55.371230674997015
2023-09-05T20:14:19.150Z,54.78960473712655
2023-09-05T20:17:14.802Z,55.42355571340136
2023-09-05T20:20:13.296Z,55.821228108802764
2023-09-05T20:23:08.846Z,55.86883751202025
2023-09-05T20:26:04.416Z,55.38856459572372
2023-09-05T20:29:03.997Z,56.24882036952341
2023-09-05T20:31:59.533Z,55.748792583837336
2023-09-05T20:34:55.104Z,55.3768854485395
2023-09-05T20:37:51.661Z,55.61664258246063
2023-09-05T20:40:48.193Z,55.33280419971932
2023-09-05T20:43:43.770Z,55.70457267746082
2023-09-05T20:46:41.382Z,55.3971718299012
2023-09-05T20:49:36.898Z,55.62268453971701
2023-09-05T20:52:32.426Z,56.10409180117433
2023-09-05T20:55:28.009Z,56.946274588350164
2023-09-05T20:58:26.791Z,56.308481023519484
2023-09-05T21:01:26.176Z,57.09372179153936
2023-09-05T21:04:21.866Z,56.520055875799095
2023-09-05T21:07:17.296Z,57.72182981861585
2023-09-05T21:10:12.790Z,59.445495360193895
2023-09-05T21:13:11.400Z,59.16470373047866
2023-09-05T21:16:08.932Z,57.94349865728779
2023-09-05T21:19:04.576Z,58.21614099340846
2023-09-05T21:22:05.030Z,59.404348358396845
2023-09-05T21:25:02.596Z,59.2184551914383
2023-09-05T21:27:58.146Z,60.10627790938209
2023-09-05T21:30:53.822Z,59.431929101812294
2023-09-05T21:33:49.352Z,58.00504226678522
2023-09-05T21:36:46.865Z,58.85953296555331
2023-09-05T21:39:42.437Z,57.243882835739505
2023-09-05T21:42:38.742Z,57.50312723127953
2023-09-05T21:45:36.525Z,56.97638381033565
2023-09-05T21:48:33.109Z,57.10605528736361
2023-09-05T21:51:28.629Z,56.53213849162216
2023-09-05T21:54:25.229Z,56.77067059603708
2023-09-05T21:57:20.757Z,56.02081857034647
2023-09-05T22:00:31.343Z,56.03784958967682
2023-09-05T22:03:27.920Z,57.176585690930835
2023-09-05T22:06:23.455Z,56.15066608994087
2023-09-05T22:09:20.972Z,55.63198447722878
2023-09-05T22:12:16.575Z,57.16269607086187
2023-09-05T22:15:13.090Z,56.56424516207854
2023-09-05T22:18:09.770Z,57.33708880639114
2023-09-05T22:21:05.173Z,56.14356722880421
2023-09-05T22:24:00.772Z,56.92771760400556
2023-09-05T22:26:59.287Z,57.925323802518534
2023-09-05T22:29:57.868Z,56.7261748949604
2023-09-05T22:32:56.484Z,56.579098135960635
2023-09-05T22:35:52.971Z,57.93529660092808
2023-09-05T22:38:51.517Z,56.96443470548301
2023-09-05T22:41:49.147Z,57.660267880398074
2023-09-05T22:44:44.632Z,57.23694453963381
2023-09-05T22:47:42.334Z,56.959534534428684
2023-09-05T22:50:40.760Z,58.14155804946111
2023-09-05T22:53:38.282Z,58.40981194785693
2023-09-05T22:56:40.868Z,60.06954502619733
2023-09-05T22:59:37.419Z,59.230046059484124
2023-09-05T23:02:33.100Z,59.71759136720607
2023-09-05T23:05:28.546Z,58.225512240605326
2023-09-05T23:08:24.108Z,57.60312375249956
2023-09-05T23:11:20.657Z,57.50424532150945
2023-09-05T23:14:18.215Z,58.75441818524818
2023-09-05T23:17:13.871Z,58.217697920068055
2023-09-05T23:20:13.453Z,58.335396203951056
2023-09-05T23:23:08.871Z,57.67346794666372
2023-09-05T23:26:09.448Z,58.821217713742385
2023-09-05T23:29:06.062Z,59.31408306928693
2023-09-05T23:32:03.566Z,58.68688265557026
2023-09-05T23:35:00.145Z,58.72935491317947
2023-09-05T23:37:55.669Z,57.74225805547401
2023-09-05T23:40:52.248Z,58.91050342095957
2023-09-05T23:43:47.767Z,58.423786308773764
2023-09-05T23:46:45.429Z,58.174152608111925
2023-09-05T23:49:42.924Z,57.764809357008936
2023-09-05T23:52:39.494Z,59.34908881341612
2023-09-05T23:55:38.014Z,57.482755990214244
2023-09-05T23:58:34.624Z,57.29499386902797
